Time;durP1;ratioP1;P1;durP2;ratioP2;P2;SDS_P1;SDS_P2;PMS_P1;PMS_P2;Temp;Humidity;BMP_temperature;BMP_pressure;BME280_temperature;BME280_humidity;BME280_pressure;Samples;Min_cycle;Max_cycle;Signal;HPM_P1;HPM_P2
2023/07/09 00:00:32;;;;;;;6.43;2.05;;;23.20;98.60;;;;;;5027978;28;20040;-73
2023/07/09 00:02:58;;;;;;;8.40;2.65;;;23.20;98.70;;;;;;5029014;28;20060;-73
2023/07/09 00:05:24;;;;;;;5.93;2.15;;;23.10;98.90;;;;;;5027805;28;20040;-73
2023/07/09 00:07:50;;;;;;;7.10;2.28;;;23.10;99.10;;;;;;5029384;28;20039;-73
2023/07/09 00:10:20;;;;;;;4.57;1.90;;;23.10;99.30;;;;;;5029409;28;20037;-72
2023/07/09 00:12:47;;;;;;;8.13;2.67;;;23.00;99.40;;;;;;5028761;28;20483;-74
2023/07/09 00:15:18;;;;;;;5.88;2.00;;;23.00;99.60;;;;;;5029291;28;20527;-73
2023/07/09 00:17:44;;;;;;;4.57;2.22;;;23.00;99.70;;;;;;5046957;28;20033;-74
2023/07/09 00:20:18;;;;;;;4.55;2.42;;;23.00;99.70;;;;;;5030192;28;20449;-74
2023/07/09 00:22:51;;;;;;;5.85;2.50;;;23.00;99.70;;;;;;5046953;28;20037;-74
2023/07/09 00:25:21;;;;;;;5.05;2.58;;;23.00;99.90;;;;;;5030453;28;20057;-72
2023/07/09 00:27:49;;;;;;;3.33;2.05;;;23.00;99.70;;;;;;5033787;28;20041;-72
2023/07/09 00:30:22;;;;;;;5.25;2.47;;;23.00;99.90;;;;;;5064208;28;20040;-74
2023/07/09 00:32:51;;;;;;;9.55;2.67;;;23.10;99.60;;;;;;5056999;28;20037;-73
2023/07/09 00:35:18;;;;;;;5.18;2.55;;;23.10;99.70;;;;;;5029499;28;20590;-72
2023/07/09 00:37:44;;;;;;;6.28;2.17;;;23.10;99.80;;;;;;5045446;28;20033;-74
2023/07/09 00:40:23;;;;;;;5.90;2.67;;;23.10;99.90;;;;;;5029079;28;20040;-74
2023/07/09 00:42:51;;;;;;;8.10;2.63;;;23.10;99.90;;;;;;5046327;28;20047;-72
2023/07/09 00:45:24;;;;;;;8.70;2.30;;;23.00;99.90;;;;;;5048479;28;20033;-74
2023/07/09 00:48:00;;;;;;;5.63;2.67;;;22.90;99.90;;;;;;5049896;28;20041;-72
2023/07/09 00:50:33;;;;;;;6.13;2.22;;;22.90;99.90;;;;;;5031755;28;20445;-73
2023/07/09 00:53:13;;;;;;;9.60;2.30;;;22.80;99.90;;;;;;5050260;28;20029;-72
2023/07/09 00:55:42;;;;;;;5.03;2.53;;;22.70;99.90;;;;;;5031403;28;20033;-73
2023/07/09 00:58:11;;;;;;;10.32;2.35;;;22.70;99.90;;;;;;5057899;28;20333;-73
2023/07/09 01:00:46;;;;;;;6.57;2.35;;;22.60;99.90;;;;;;5049558;28;20040;-74
2023/07/09 01:03:34;;;;;;;7.57;2.35;;;22.60;99.90;;;;;;5032437;28;20041;-72
2023/07/09 01:06:00;;;;;;;6.13;2.30;;;22.50;99.90;;;;;;5027521;28;20060;-73
2023/07/09 01:08:30;;;;;;;5.80;2.35;;;22.50;99.90;;;;;;5048990;28;20033;-73
2023/07/09 01:10:57;;;;;;;5.35;2.83;;;22.50;99.90;;;;;;5049936;28;20503;-72
2023/07/09 01:13:22;;;;;;;6.00;2.20;;;22.40;99.90;;;;;;5031078;28;20033;-74
2023/07/09 01:15:48;;;;;;;6.85;2.90;;;22.40;99.90;;;;;;5050291;28;20127;-73
2023/07/09 01:18:14;;;;;;;5.72;2.42;;;22.40;99.90;;;;;;5032605;28;20044;-73
2023/07/09 01:20:40;;;;;;;5.35;2.10;;;22.30;99.90;;;;;;5049116;28;20563;-74
2023/07/09 01:23:07;;;;;;;6.22;2.47;;;22.30;99.90;;;;;;5031911;28;20132;-74
2023/07/09 01:25:35;;;;;;;5.70;2.38;;;22.20;99.90;;;;;;5031008;28;20052;-72
2023/07/09 01:28:00;;;;;;;5.93;2.65;;;22.20;99.90;;;;;;5046419;28;20036;-73
2023/07/09 01:30:31;;;;;;;5.28;2.45;;;22.20;99.90;;;;;;5031136;28;20052;-73
2023/07/09 01:33:00;;;;;;;7.60;2.65;;;22.10;99.90;;;;;;5050073;28;20039;-73
2023/07/09 01:35:28;;;;;;;5.07;2.30;;;22.10;99.90;;;;;;5030467;28;20048;-73
2023/07/09 01:37:54;;;;;;;5.35;2.30;;;22.00;99.90;;;;;;5031411;28;20033;-73
2023/07/09 01:40:23;;;;;;;4.55;2.63;;;22.00;99.90;;;;;;5031012;28;20113;-76
2023/07/09 01:42:50;;;;;;;6.03;2.40;;;22.00;99.90;;;;;;5049711;28;20036;-73
2023/07/09 01:45:16;;;;;;;4.72;2.28;;;22.00;99.90;;;;;;5049555;28;20041;-71
2023/07/09 01:47:43;;;;;;;5.18;2.30;;;21.90;99.90;;;;;;5048133;28;20037;-72
2023/07/09 01:50:09;;;;;;;4.25;2.42;;;21.90;99.90;;;;;;5049433;28;20033;-72
2023/07/09 01:52:37;;;;;;;5.35;2.92;;;21.90;99.90;;;;;;5047773;28;20054;-72
2023/07/09 01:55:03;;;;;;;7.43;2.42;;;21.80;99.90;;;;;;5049362;28;20067;-73
2023/07/09 01:57:35;;;;;;;10.65;3.75;;;21.80;99.90;;;;;;5031891;28;20041;-72
2023/07/09 02:00:10;;;;;;;5.55;3.15;;;21.80;99.90;;;;;;5045846;28;20412;-73
2023/07/09 02:02:38;;;;;;;5.35;2.50;;;21.80;99.90;;;;;;5027447;28;20036;-73
2023/07/09 02:05:05;;;;;;;4.70;2.40;;;21.80;99.90;;;;;;5031055;28;20115;-74
2023/07/09 02:07:31;;;;;;;7.53;2.58;;;21.80;99.90;;;;;;5030436;28;20033;-72
2023/07/09 02:09:58;;;;;;;7.30;2.90;;;21.70;99.90;;;;;;5049220;28;20044;-73
2023/07/09 02:12:24;;;;;;;7.80;3.10;;;21.70;99.90;;;;;;5030102;28;20445;-74
2023/07/09 02:14:50;;;;;;;6.38;2.55;;;21.70;99.90;;;;;;5049064;28;20029;-72
2023/07/09 02:17:16;;;;;;;8.57;2.75;;;21.70;99.90;;;;;;5031048;28;20061;-72
2023/07/09 02:19:42;;;;;;;4.82;2.28;;;21.60;99.90;;;;;;5047582;28;20036;-73
2023/07/09 02:22:08;;;;;;;6.22;2.30;;;21.60;99.90;;;;;;5031246;28;20069;-72
2023/07/09 02:24:34;;;;;;;9.20;3.00;;;21.60;99.90;;;;;;5048012;28;20068;-71
2023/07/09 02:27:02;;;;;;;8.55;3.95;;;21.60;99.90;;;;;;5031832;28;20491;-72
2023/07/09 02:29:28;;;;;;;7.97;2.75;;;21.50;99.90;;;;;;5048012;28;20108;-73
2023/07/09 02:31:57;;;;;;;5.78;2.85;;;21.50;99.90;;;;;;5049202;28;20087;-71
2023/07/09 02:34:25;;;;;;;7.35;2.35;;;21.60;99.90;;;;;;5029993;28;20441;-72
2023/07/09 02:36:52;;;;;;;9.45;2.92;;;21.60;99.90;;;;;;5031368;28;20052;-72
2023/07/09 02:39:17;;;;;;;6.88;3.40;;;21.70;99.90;;;;;;5049239;28;20025;-70
2023/07/09 02:41:43;;;;;;;6.18;3.35;;;21.70;99.90;;;;;;5047394;28;20033;-71
2023/07/09 02:44:09;;;;;;;8.52;3.15;;;21.70;99.90;;;;;;5048704;28;20041;-71
2023/07/09 02:46:35;;;;;;;6.22;2.65;;;21.70;99.90;;;;;;5047900;28;20041;-73
2023/07/09 02:49:05;;;;;;;6.50;2.90;;;21.60;99.90;;;;;;5030865;28;20032;-72
2023/07/09 02:51:31;;;;;;;8.77;3.25;;;21.60;99.90;;;;;;5048139;28;20124;-71
2023/07/09 02:53:59;;;;;;;7.78;2.83;;;21.60;99.90;;;;;;5032349;28;20053;-71
2023/07/09 02:56:25;;;;;;;6.13;2.95;;;21.50;99.90;;;;;;5017401;28;20363;-72
2023/07/09 02:58:51;;;;;;;7.63;2.90;;;21.60;99.90;;;;;;5048883;28;20071;-71
2023/07/09 03:01:17;;;;;;;7.93;3.58;;;21.50;99.90;;;;;;5048916;28;20529;-71
2023/07/09 03:03:43;;;;;;;9.07;3.70;;;21.50;99.90;;;;;;5048068;28;20506;-71
2023/07/09 03:06:09;;;;;;;6.53;3.35;;;21.40;99.90;;;;;;5049800;28;20068;-70
2023/07/09 03:08:35;;;;;;;10.35;3.40;;;21.50;99.90;;;;;;5054295;28;20467;-71
2023/07/09 03:11:11;;;;;;;7.70;2.83;;;21.50;99.90;;;;;;5053547;28;20487;-71
2023/07/09 03:13:37;;;;;;;8.23;3.42;;;21.50;99.90;;;;;;5031552;28;20060;-71
2023/07/09 03:16:03;;;;;;;6.18;2.95;;;21.40;99.90;;;;;;5049805;28;20051;-72
2023/07/09 03:18:28;;;;;;;8.00;2.92;;;21.40;99.90;;;;;;5030332;28;20049;-72
2023/07/09 03:20:54;;;;;;;8.20;3.60;;;21.40;99.90;;;;;;5032156;28;20035;-72
2023/07/09 03:23:20;;;;;;;8.80;2.92;;;21.40;99.90;;;;;;5032129;28;20495;-72
2023/07/09 03:25:45;;;;;;;8.30;3.65;;;21.30;99.90;;;;;;5048960;28;20060;-71
2023/07/09 03:28:12;;;;;;;8.50;3.92;;;21.30;99.90;;;;;;5053213;28;20451;-73
2023/07/09 03:30:42;;;;;;;8.15;3.83;;;21.30;99.90;;;;;;5057592;28;20040;-74
2023/07/09 03:33:09;;;;;;;10.70;4.43;;;21.30;99.90;;;;;;5059926;28;20061;-72
2023/07/09 03:35:34;;;;;;;10.90;4.00;;;21.30;99.90;;;;;;5030159;28;20051;-72
2023/07/09 03:38:00;;;;;;;8.05;3.65;;;21.40;99.90;;;;;;5030253;28;20041;-73
2023/07/09 03:40:26;;;;;;;10.45;4.22;;;21.40;99.90;;;;;;5046703;28;20049;-73
2023/07/09 03:42:51;;;;;;;8.77;4.18;;;21.40;99.90;;;;;;5047581;28;20033;-73
2023/07/09 03:45:17;;;;;;;12.23;4.35;;;21.40;99.90;;;;;;5029327;28;20433;-73
2023/07/09 03:47:42;;;;;;;14.88;4.43;;;21.30;99.90;;;;;;5028941;28;20187;-73
2023/07/09 03:50:09;;;;;;;12.85;4.35;;;21.30;99.90;;;;;;5029678;28;20041;-73
2023/07/09 03:52:35;;;;;;;8.45;4.28;;;21.30;99.90;;;;;;5028698;28;20044;-73
2023/07/09 03:55:03;;;;;;;9.27;4.35;;;21.40;99.90;;;;;;5047270;28;20041;-72
2023/07/09 03:57:32;;;;;;;11.15;5.10;;;21.40;99.90;;;;;;5047796;28;20061;-72
2023/07/09 03:59:58;;;;;;;8.05;3.72;;;21.50;99.90;;;;;;5047057;28;20055;-72
2023/07/09 04:02:24;;;;;;;8.05;3.60;;;21.50;99.90;;;;;;5028532;28;20037;-72
2023/07/09 04:04:49;;;;;;;8.88;4.22;;;21.50;99.90;;;;;;5027733;28;20110;-72
2023/07/09 04:07:15;;;;;;;8.48;4.15;;;21.50;99.90;;;;;;5047355;28;20040;-74
2023/07/09 04:09:42;;;;;;;8.10;4.25;;;21.50;99.90;;;;;;5028786;28;20122;-72
2023/07/09 04:12:08;;;;;;;12.02;4.18;;;21.40;99.90;;;;;;5047071;28;20037;-73
2023/07/09 04:14:34;;;;;;;9.23;4.80;;;21.40;99.90;;;;;;5028107;28;20086;-73
2023/07/09 04:16:59;;;;;;;10.15;4.53;;;21.40;99.90;;;;;;5029304;28;20120;-72
2023/07/09 04:19:25;;;;;;;10.70;4.18;;;21.40;99.90;;;;;;5028859;28;20045;-72
2023/07/09 04:21:51;;;;;;;8.52;4.00;;;21.40;99.90;;;;;;5051478;28;20079;-73
2023/07/09 04:24:18;;;;;;;8.50;3.80;;;21.40;99.90;;;;;;5051275;28;20479;-73
2023/07/09 04:26:44;;;;;;;8.27;3.90;;;21.40;99.90;;;;;;5050098;28;20156;-73
2023/07/09 04:29:10;;;;;;;8.00;3.75;;;21.40;99.90;;;;;;5053794;28;20131;-73
2023/07/09 04:31:36;;;;;;;7.82;3.95;;;21.40;99.90;;;;;;5049969;28;20032;-72
2023/07/09 04:34:03;;;;;;;8.95;3.67;;;21.40;99.90;;;;;;5051143;28;20033;-73
2023/07/09 04:36:29;;;;;;;13.30;5.00;;;21.40;99.90;;;;;;5050071;28;20025;-71
2023/07/09 04:38:54;;;;;;;13.57;4.43;;;21.50;99.90;;;;;;5033066;28;20040;-72
2023/07/09 04:41:20;;;;;;;10.15;4.63;;;21.50;99.90;;;;;;5032905;28;20036;-72
2023/07/09 04:43:46;;;;;;;12.80;4.82;;;21.50;99.90;;;;;;5032335;28;20436;-73
2023/07/09 04:46:11;;;;;;;11.30;4.57;;;21.60;99.90;;;;;;5033084;28;20045;-72
2023/07/09 04:48:38;;;;;;;9.73;4.30;;;21.60;99.90;;;;;;5049728;28;20037;-74
2023/07/09 04:51:04;;;;;;;8.60;4.18;;;21.60;99.90;;;;;;5050774;28;20041;-72
2023/07/09 04:53:30;;;;;;;8.02;4.70;;;21.60;99.90;;;;;;5049881;28;20029;-71
2023/07/09 04:55:55;;;;;;;8.45;4.93;;;21.60;99.90;;;;;;5032562;28;20407;-73
2023/07/09 04:58:21;;;;;;;11.50;5.25;;;21.70;99.90;;;;;;5050776;28;20071;-75
2023/07/09 05:00:47;;;;;;;9.20;4.72;;;21.70;99.90;;;;;;5050636;28;20037;-73
2023/07/09 05:03:13;;;;;;;7.80;4.43;;;21.70;99.90;;;;;;5050649;28;20072;-73
2023/07/09 05:05:46;;;;;;;10.13;4.75;;;21.70;99.90;;;;;;5031516;28;20029;-74
2023/07/09 05:08:13;;;;;;;10.32;4.20;;;21.80;99.90;;;;;;5050593;28;20137;-73
2023/07/09 05:10:46;;;;;;;10.20;4.65;;;21.80;99.90;;;;;;5049489;28;20028;-74
2023/07/09 05:13:12;;;;;;;8.27;4.45;;;21.90;99.90;;;;;;5032287;28;20040;-74
2023/07/09 05:15:43;;;;;;;8.88;4.15;;;21.90;99.90;;;;;;5031317;28;20560;-72
2023/07/09 05:18:09;;;;;;;10.77;4.53;;;22.00;99.90;;;;;;5050342;28;20064;-73
2023/07/09 05:20:34;;;;;;;12.85;4.80;;;22.00;99.90;;;;;;5031225;28;20072;-73
2023/07/09 05:23:00;;;;;;;9.93;4.47;;;22.10;99.90;;;;;;5032189;28;20029;-73
2023/07/09 05:25:26;;;;;;;7.60;4.10;;;22.10;99.90;;;;;;5049315;28;20106;-74
2023/07/09 05:27:51;;;;;;;8.50;4.50;;;22.20;99.90;;;;;;5050512;28;20092;-73
2023/07/09 05:30:18;;;;;;;7.68;4.57;;;22.30;99.90;;;;;;5050222;28;20044;-72
2023/07/09 05:32:44;;;;;;;15.75;5.22;;;22.40;99.90;;;;;;5031083;28;20064;-75
2023/07/09 05:35:09;;;;;;;10.45;4.75;;;22.50;99.90;;;;;;5049709;28;20103;-74
2023/07/09 05:37:36;;;;;;;10.02;4.93;;;22.70;99.90;;;;;;5048836;28;20056;-72
2023/07/09 05:40:04;;;;;;;10.80;4.45;;;22.90;99.90;;;;;;5049675;28;20051;-73
2023/07/09 05:42:29;;;;;;;8.73;4.78;;;23.00;99.90;;;;;;5048917;28;20029;-74
2023/07/09 05:44:55;;;;;;;12.77;4.68;;;23.20;99.90;;;;;;5031807;28;20059;-74
2023/07/09 05:47:21;;;;;;;9.98;4.38;;;23.40;99.90;;;;;;5047950;28;20056;-76
2023/07/09 05:49:49;;;;;;;10.00;4.50;;;23.50;99.90;;;;;;5049493;28;20040;-72
2023/07/09 05:52:15;;;;;;;8.57;4.60;;;23.60;99.90;;;;;;5049540;28;20040;-74
2023/07/09 05:54:40;;;;;;;12.32;4.60;;;23.80;99.90;;;;;;5048108;28;20049;-72
2023/07/09 05:57:06;;;;;;;9.25;4.50;;;24.00;99.90;;;;;;5031752;28;20045;-73
2023/07/09 05:59:32;;;;;;;10.35;4.40;;;24.20;99.90;;;;;;5031593;28;20060;-73
2023/07/09 06:02:00;;;;;;;13.85;5.07;;;24.40;99.90;;;;;;5049196;28;20025;-73
2023/07/09 06:04:26;;;;;;;8.60;4.82;;;24.70;99.90;;;;;;5047345;28;20036;-72
2023/07/09 06:06:52;;;;;;;10.68;4.60;;;24.90;99.90;;;;;;5031588;28;20376;-73
2023/07/09 06:09:17;;;;;;;9.88;5.13;;;25.00;99.90;;;;;;5031468;28;20074;-74
2023/07/09 06:11:43;;;;;;;10.07;5.25;;;25.20;99.90;;;;;;5030768;28;20029;-74
2023/07/09 06:14:09;;;;;;;9.52;4.68;;;25.30;99.90;;;;;;5031545;28;20550;-73
2023/07/09 06:16:35;;;;;;;12.27;4.93;;;25.40;99.90;;;;;;5048541;28;20116;-73
2023/07/09 06:19:00;;;;;;;11.93;4.97;;;25.60;99.90;;;;;;5022786;28;20036;-73
2023/07/09 06:21:26;;;;;;;10.68;4.88;;;25.60;99.90;;;;;;5029307;28;20067;-75
2023/07/09 06:23:51;;;;;;;9.15;4.95;;;25.80;99.90;;;;;;5049396;28;20041;-73
2023/07/09 06:26:17;;;;;;;15.18;5.65;;;25.70;99.90;;;;;;5049987;28;20166;-74
2023/07/09 06:28:43;;;;;;;11.00;5.25;;;25.80;99.90;;;;;;5049901;28;20028;-74
2023/07/09 06:31:08;;;;;;;10.00;5.20;;;25.80;99.90;;;;;;5056284;28;20016;-73
2023/07/09 06:33:34;;;;;;;10.52;5.15;;;25.90;99.90;;;;;;5058707;28;20091;-72
2023/07/09 06:36:01;;;;;;;11.10;4.90;;;26.00;99.90;;;;;;5031672;28;20407;-72
2023/07/09 06:38:28;;;;;;;9.80;5.00;;;26.20;99.90;;;;;;5029646;28;20036;-74
2023/07/09 06:40:54;;;;;;;14.25;5.13;;;26.40;99.90;;;;;;5043828;28;20060;-72
2023/07/09 06:43:20;;;;;;;8.82;4.82;;;26.60;99.90;;;;;;5047000;28;20033;-73
2023/07/09 06:45:57;;;;;;;9.63;4.68;;;26.70;99.90;;;;;;5046911;28;20063;-74
2023/07/09 06:48:24;;;;;;;10.95;5.03;;;26.90;99.90;;;;;;5029563;28;20044;-73
2023/07/09 06:50:51;;;;;;;8.93;4.82;;;27.10;99.90;;;;;;5044861;28;20025;-73
2023/07/09 06:53:16;;;;;;;12.75;4.55;;;27.30;99.90;;;;;;5027538;28;20090;-73
2023/07/09 06:55:42;;;;;;;6.75;4.25;;;27.60;99.90;;;;;;5046857;28;20067;-73
2023/07/09 06:58:08;;;;;;;9.95;4.57;;;28.00;99.90;;;;;;5029944;28;20456;-73
2023/07/09 07:00:35;;;;;;;7.53;4.60;;;28.20;99.90;;;;;;5047152;28;20048;-74
2023/07/09 07:03:01;;;;;;;8.55;4.38;;;28.30;99.90;;;;;;5047660;28;20036;-74
2023/07/09 07:05:26;;;;;;;7.93;4.55;;;28.40;99.90;;;;;;5045678;28;20045;-74
2023/07/09 07:07:53;;;;;;;7.15;4.68;;;28.50;99.90;;;;;;5045336;28;20044;-75
2023/07/09 07:10:19;;;;;;;11.73;5.43;;;28.50;99.90;;;;;;5029509;28;20151;-75
2023/07/09 07:12:46;;;;;;;8.50;5.13;;;28.60;99.90;;;;;;5043084;28;20041;-75
2023/07/09 07:15:15;;;;;;;6.35;4.22;;;28.80;99.90;;;;;;5047437;28;20041;-75
2023/07/09 07:17:41;;;;;;;8.40;5.05;;;29.10;99.90;;;;;;5044183;28;20033;-74
2023/07/09 07:20:08;;;;;;;11.00;5.20;;;29.40;99.90;;;;;;5029813;28;20052;-75
2023/07/09 07:22:34;;;;;;;12.00;6.78;;;29.80;99.90;;;;;;5046452;28;20380;-74
2023/07/09 07:24:59;;;;;;;11.73;7.43;;;30.40;99.90;;;;;;5029926;28;20045;-74
2023/07/09 07:27:25;;;;;;;10.68;7.20;;;31.00;98.90;;;;;;5047084;28;20040;-74
2023/07/09 07:29:50;;;;;;;17.45;8.15;;;31.70;98.40;;;;;;5031246;28;20061;-73
2023/07/09 07:32:16;;;;;;;12.60;8.30;;;32.50;98.30;;;;;;5047592;28;20095;-74
2023/07/09 07:34:42;;;;;;;15.00;10.50;;;33.10;97.60;;;;;;5028927;28;20032;-74
2023/07/09 07:37:07;;;;;;;18.23;9.48;;;33.60;95.90;;;;;;5043626;28;20709;-74
2023/07/09 07:39:33;;;;;;;14.98;10.13;;;33.90;95.70;;;;;;5044957;28;20083;-75
2023/07/09 07:41:58;;;;;;;11.80;8.55;;;34.30;94.60;;;;;;5047260;28;20033;-75
2023/07/09 07:44:24;;;;;;;15.27;9.25;;;34.40;93.80;;;;;;5046360;28;20045;-75
2023/07/09 07:46:49;;;;;;;10.90;7.75;;;34.60;93.00;;;;;;5040481;28;20459;-74
2023/07/09 07:49:15;;;;;;;11.80;7.35;;;34.80;92.60;;;;;;5048273;28;20045;-74
2023/07/09 07:51:41;;;;;;;10.77;8.13;;;35.10;91.70;;;;;;5029878;28;20053;-73
2023/07/09 07:54:09;;;;;;;13.00;8.27;;;35.20;91.30;;;;;;5051197;28;20022;-74
2023/07/09 07:56:36;;;;;;;9.77;6.97;;;35.40;91.20;;;;;;5033691;28;20037;-73
2023/07/09 07:59:02;;;;;;;14.93;7.22;;;35.30;91.10;;;;;;5051888;28;20045;-73
2023/07/09 08:01:28;;;;;;;15.20;6.95;;;35.30;90.50;;;;;;5029617;28;20040;-75
2023/07/09 08:03:54;;;;;;;9.57;7.10;;;35.40;90.30;;;;;;5045365;28;20557;-74
2023/07/09 08:06:20;;;;;;;10.57;8.30;;;35.30;90.60;;;;;;5043688;28;20052;-74
2023/07/09 08:08:45;;;;;;;12.88;8.23;;;35.20;90.60;;;;;;5045210;28;20033;-75
2023/07/09 08:11:11;;;;;;;13.45;8.98;;;35.10;90.90;;;;;;5045871;28;20045;-74
2023/07/09 08:13:38;;;;;;;13.60;9.18;;;35.00;90.90;;;;;;5045497;28;20037;-75
2023/07/09 08:16:05;;;;;;;20.10;9.15;;;34.90;90.50;;;;;;5046485;28;20068;-74
2023/07/09 08:18:30;;;;;;;15.43;9.70;;;34.70;90.60;;;;;;5045615;28;20041;-73
2023/07/09 08:20:56;;;;;;;12.90;9.07;;;34.30;90.90;;;;;;5047134;28;20052;-70
2023/07/09 08:23:21;;;;;;;15.02;8.73;;;33.80;91.10;;;;;;5028118;28;20099;-75
2023/07/09 08:25:59;;;;;;;11.88;7.82;;;33.40;91.50;;;;;;5046956;28;20407;-75
2023/07/09 08:28:25;;;;;;;11.77;7.28;;;32.90;92.00;;;;;;5047074;28;20091;-74
2023/07/09 08:30:54;;;;;;;11.50;7.95;;;32.40;92.30;;;;;;5046517;28;20064;-73
2023/07/09 08:33:19;;;;;;;17.95;7.70;;;32.20;93.00;;;;;;5046808;28;20051;-74
2023/07/09 08:35:45;;;;;;;18.58;8.63;;;32.00;93.40;;;;;;5045638;28;20119;-75
2023/07/09 08:38:10;;;;;;;17.90;8.40;;;31.70;93.20;;;;;;5029275;28;20124;-72
2023/07/09 08:40:57;;;;;;;13.32;7.65;;;31.50;93.60;;;;;;5028289;28;20044;-73
2023/07/09 08:43:33;;;;;;;15.65;7.90;;;31.20;93.50;;;;;;5036234;28;20045;-75
2023/07/09 08:46:21;;;;;;;19.45;7.53;;;31.00;93.50;;;;;;5027482;28;20075;-73
2023/07/09 08:48:50;;;;;;;13.25;6.93;;;30.80;93.90;;;;;;5044046;28;20040;-74
2023/07/09 08:51:33;;;;;;;14.55;7.40;;;30.70;94.10;;;;;;5028937;28;20063;-74
2023/07/09 08:54:00;;;;;;;12.48;6.07;;;30.70;93.70;;;;;;5028309;28;20458;-74
2023/07/09 08:56:29;;;;;;;13.50;6.55;;;30.60;93.80;;;;;;5045876;28;20516;-74
2023/07/09 08:58:58;;;;;;;17.80;7.20;;;30.70;93.70;;;;;;5032320;28;20033;-73
2023/07/09 09:01:45;;;;;;;10.55;5.50;;;30.80;94.00;;;;;;5045809;28;20041;-74
2023/07/09 09:04:17;;;;;;;11.65;5.95;;;30.60;93.90;;;;;;5043477;28;20037;-74
2023/07/09 09:06:48;;;;;;;8.23;5.50;;;30.50;94.10;;;;;;5048730;28;20037;-73
2023/07/09 09:09:28;;;;;;;10.73;5.13;;;30.50;94.80;;;;;;5032406;28;20044;-73
2023/07/09 09:12:08;;;;;;;8.38;4.75;;;30.60;94.90;;;;;;5032257;28;20581;-73
2023/07/09 09:14:39;;;;;;;11.93;4.97;;;30.60;94.50;;;;;;5045244;28;20441;-73
2023/07/09 09:17:13;;;;;;;13.05;4.70;;;30.60;95.10;;;;;;5046559;28;20044;-74
2023/07/09 09:19:45;;;;;;;11.75;5.15;;;30.60;95.40;;;;;;5042014;28;20117;-73
2023/07/09 09:22:19;;;;;;;10.10;6.13;;;30.60;95.90;;;;;;5032076;28;20116;-72
2023/07/09 09:24:50;;;;;;;10.45;6.78;;;30.60;95.90;;;;;;5047990;28;20556;-72
2023/07/09 09:27:16;;;;;;;12.27;5.90;;;30.60;95.80;;;;;;5047124;28;20037;-73
2023/07/09 09:29:42;;;;;;;10.73;6.15;;;30.60;96.00;;;;;;5047911;28;20079;-75
2023/07/09 09:32:24;;;;;;;10.15;6.13;;;30.70;95.70;;;;;;5046057;28;20116;-72
2023/07/09 09:34:50;;;;;;;9.25;5.15;;;30.80;95.70;;;;;;5045228;28;20033;-71
2023/07/09 09:37:30;;;;;;;14.77;5.93;;;30.90;95.50;;;;;;5046957;28;20498;-72
2023/07/09 09:39:58;;;;;;;6.95;4.32;;;31.00;95.00;;;;;;5030251;28;20037;-74
2023/07/09 09:42:25;;;;;;;7.85;5.10;;;31.10;95.10;;;;;;5038344;28;20021;-74
2023/07/09 09:44:54;;;;;;;9.18;5.72;;;31.20;94.70;;;;;;5030360;28;20036;-74
2023/07/09 09:47:20;;;;;;;11.88;5.13;;;31.20;94.50;;;;;;5049386;28;20041;-73
2023/07/09 09:49:46;;;;;;;7.78;4.50;;;31.20;94.50;;;;;;5030432;28;20041;-74
2023/07/09 09:52:18;;;;;;;10.30;5.68;;;31.30;94.10;;;;;;5031309;28;20040;-73
2023/07/09 09:54:56;;;;;;;8.15;5.30;;;31.30;93.70;;;;;;5047929;28;20043;-73
2023/07/09 09:57:24;;;;;;;6.85;4.32;;;31.30;93.30;;;;;;5050117;28;20344;-75
2023/07/09 09:59:50;;;;;;;12.30;4.72;;;31.10;93.70;;;;;;5050370;28;20040;-73
2023/07/09 10:02:21;;;;;;;9.60;5.20;;;31.00;93.80;;;;;;5028433;28;20037;-73
2023/07/09 10:04:47;;;;;;;6.47;3.95;;;31.00;94.10;;;;;;5031564;28;20037;-75
2023/07/09 10:07:36;;;;;;;7.68;3.83;;;31.10;94.10;;;;;;5028288;28;20948;-75
2023/07/09 10:10:03;;;;;;;11.07;4.45;;;31.30;93.80;;;;;;5049757;28;20037;-74
2023/07/09 10:12:53;;;;;;;13.43;4.50;;;31.30;93.90;;;;;;5026372;28;20029;-73
2023/07/09 10:15:26;;;;;;;9.27;4.05;;;31.20;93.70;;;;;;5029253;28;20553;-74
2023/07/09 10:18:09;;;;;;;10.10;4.43;;;31.10;93.50;;;;;;5046787;28;20032;-74
2023/07/09 10:20:51;;;;;;;9.43;3.75;;;31.00;93.40;;;;;;5031437;28;20033;-74
2023/07/09 10:23:37;;;;;;;8.30;4.47;;;30.80;93.60;;;;;;5042828;28;20041;-73
2023/07/09 10:26:30;;;;;;;7.32;4.05;;;30.60;93.70;;;;;;5043259;28;20033;-73
2023/07/09 10:29:22;;;;;;;7.88;4.07;;;30.40;94.00;;;;;;5030370;28;20090;-74
2023/07/09 10:32:01;;;;;;;8.35;3.53;;;30.20;94.10;;;;;;5046372;28;20527;-74
2023/07/09 10:34:39;;;;;;;5.68;3.10;;;30.40;93.90;;;;;;5043149;28;20434;-72
2023/07/09 10:37:34;;;;;;;6.68;2.97;;;30.50;93.90;;;;;;5025517;28;20388;-74
2023/07/09 10:40:01;;;;;;;4.75;2.80;;;30.60;93.00;;;;;;5043977;28;20035;-75
2023/07/09 10:42:32;;;;;;;7.20;3.55;;;30.60;92.40;;;;;;5025393;28;20116;-73
2023/07/09 10:45:04;;;;;;;6.70;3.38;;;30.70;92.90;;;;;;5044223;28;20036;-73
2023/07/09 10:47:42;;;;;;;9.00;3.55;;;30.80;92.90;;;;;;5029426;28;20041;-73
2023/07/09 10:50:15;;;;;;;8.73;3.80;;;30.80;92.70;;;;;;5036196;28;20128;-73
2023/07/09 10:52:46;;;;;;;9.13;3.30;;;30.50;92.40;;;;;;5047012;28;20118;-72
2023/07/09 10:55:25;;;;;;;7.20;3.40;;;30.40;93.10;;;;;;5048125;28;20039;-73
2023/07/09 10:58:02;;;;;;;6.53;3.00;;;30.50;93.60;;;;;;5032145;28;20501;-72
2023/07/09 11:00:38;;;;;;;7.55;3.67;;;30.70;93.30;;;;;;5042497;28;20106;-73
2023/07/09 11:03:30;;;;;;;7.35;2.85;;;31.00;92.80;;;;;;5045327;28;20443;-74
2023/07/09 11:05:56;;;;;;;6.07;3.40;;;31.10;93.00;;;;;;5045364;28;20116;-72
2023/07/09 11:08:35;;;;;;;5.97;3.50;;;31.30;92.40;;;;;;5028754;28;20132;-76
2023/07/09 11:11:10;;;;;;;4.82;2.75;;;31.10;92.30;;;;;;5045181;28;20029;-74
2023/07/09 11:13:47;;;;;;;5.45;3.15;;;31.00;92.90;;;;;;5046129;28;20381;-73
2023/07/09 11:16:20;;;;;;;9.43;3.63;;;30.90;92.30;;;;;;5044899;28;20447;-73
2023/07/09 11:18:56;;;;;;;11.73;3.65;;;30.80;92.50;;;;;;5045812;28;20025;-75
2023/07/09 11:21:22;;;;;;;8.85;4.13;;;30.90;93.10;;;;;;5047104;28;20041;-73
2023/07/09 11:23:54;;;;;;;9.02;3.85;;;31.00;92.50;;;;;;5045904;28;20044;-75
2023/07/09 11:26:22;;;;;;;6.82;2.75;;;31.00;92.80;;;;;;5046921;28;20045;-75
2023/07/09 11:28:56;;;;;;;7.95;3.53;;;31.00;92.80;;;;;;5045300;28;20045;-75
2023/07/09 11:31:40;;;;;;;6.60;4.10;;;31.00;93.00;;;;;;5046565;28;20029;-73
2023/07/09 11:34:17;;;;;;;10.45;3.53;;;31.00;92.70;;;;;;5044468;28;20045;-72
2023/07/09 11:37:01;;;;;;;6.60;4.13;;;30.90;93.30;;;;;;5043214;28;20037;-72
2023/07/09 11:39:38;;;;;;;11.07;4.32;;;31.00;93.50;;;;;;5043756;28;20037;-71
2023/07/09 11:42:22;;;;;;;9.63;4.28;;;30.70;93.10;;;;;;5044794;28;20454;-72
2023/07/09 11:44:52;;;;;;;9.18;3.38;;;30.60;93.40;;;;;;5044896;28;20033;-71
2023/07/09 11:47:20;;;;;;;9.18;3.25;;;30.50;93.20;;;;;;5047054;28;20112;-71
2023/07/09 11:50:13;;;;;;;12.60;2.70;;;30.40;93.40;;;;;;5046675;28;20637;-72
2023/07/09 11:52:42;;;;;;;7.30;2.78;;;30.30;93.30;;;;;;5046532;28;20075;-71
2023/07/09 11:55:19;;;;;;;6.47;2.58;;;30.30;93.90;;;;;;5027774;28;20399;-72
2023/07/09 11:57:52;;;;;;;4.00;2.40;;;30.20;93.70;;;;;;5046385;28;20041;-72
2023/07/09 12:00:18;;;;;;;5.85;2.83;;;30.20;93.60;;;;;;5029430;28;20091;-72
2023/07/09 12:02:43;;;;;;;4.18;2.13;;;30.10;93.90;;;;;;5045811;28;20418;-71
2023/07/09 12:05:10;;;;;;;6.25;1.83;;;30.00;93.70;;;;;;5023978;28;20565;-74
2023/07/09 12:07:35;;;;;;;5.90;2.95;;;30.00;93.20;;;;;;5027076;28;20029;-74
2023/07/09 12:10:11;;;;;;;15.45;3.42;;;29.90;93.40;;;;;;5030469;28;20043;-71
2023/07/09 12:12:42;;;;;;;5.95;3.28;;;29.90;93.40;;;;;;5043756;28;20064;-71
2023/07/09 12:15:27;;;;;;;6.80;2.55;;;30.00;93.40;;;;;;5046161;28;20148;-70
2023/07/09 12:18:09;;;;;;;3.83;1.67;;;30.10;93.10;;;;;;5042381;28;20060;-71
2023/07/09 12:20:36;;;;;;;6.28;2.08;;;30.30;93.70;;;;;;5044228;28;20047;-74
2023/07/09 12:23:26;;;;;;;5.80;1.95;;;30.40;93.60;;;;;;5047199;28;20028;-72
2023/07/09 12:25:53;;;;;;;6.85;2.28;;;30.50;94.20;;;;;;5042033;28;20029;-73
2023/07/09 12:28:20;;;;;;;4.03;2.47;;;30.50;93.90;;;;;;5046908;28;20148;-71
2023/07/09 12:30:51;;;;;;;5.25;2.63;;;30.30;93.30;;;;;;5045762;28;20060;-73
2023/07/09 12:33:19;;;;;;;5.53;2.03;;;30.20;93.50;;;;;;5046538;28;20033;-71
2023/07/09 12:35:46;;;;;;;7.85;2.90;;;29.90;93.60;;;;;;5046202;28;20037;-72
2023/07/09 12:38:20;;;;;;;5.78;2.20;;;30.00;93.60;;;;;;5047444;28;20037;-72
2023/07/09 12:40:46;;;;;;;7.28;2.22;;;29.90;93.90;;;;;;5047343;28;20052;-72
2023/07/09 12:43:12;;;;;;;5.32;2.45;;;29.90;93.50;;;;;;5050107;28;20683;-72
2023/07/09 12:45:38;;;;;;;7.30;2.13;;;29.90;93.50;;;;;;5030879;28;20117;-73
2023/07/09 12:48:04;;;;;;;4.65;2.30;;;29.90;93.70;;;;;;5031738;28;20487;-71
2023/07/09 12:50:35;;;;;;;7.22;3.00;;;30.00;93.40;;;;;;5048081;28;20086;-71
2023/07/09 12:53:23;;;;;;;5.03;2.10;;;29.90;92.60;;;;;;5031551;28;20033;-71